createdAt,value
2022-09-14T00:01:43.446Z,8.45
2022-09-14T00:04:15.432Z,7.35
2022-09-14T00:06:41.831Z,6.38
2022-09-14T00:09:10.280Z,11.45
2022-09-14T00:11:36.998Z,7.28
2022-09-14T00:14:04.743Z,9.75
2022-09-14T00:16:34.096Z,7.55
2022-09-14T00:19:05.888Z,8.93
2022-09-14T00:21:34.082Z,7.20
2022-09-14T00:23:59.948Z,7.20
2022-09-14T00:26:25.898Z,7.95
2022-09-14T00:28:57.201Z,7.93
2022-09-14T00:31:24.356Z,7.90
2022-09-14T00:33:51.661Z,8.02
2022-09-14T00:36:24.166Z,5.57
2022-09-14T00:38:50.910Z,6.97
2022-09-14T00:41:20.375Z,7.53
2022-09-14T00:44:26.497Z,6.40
2022-09-14T00:46:56.282Z,4.15
2022-09-14T00:49:29.286Z,6.63
2022-09-14T00:52:08.119Z,5.45
2022-09-14T00:54:38.498Z,10.48
2022-09-14T00:57:04.438Z,5.28
2022-09-14T00:59:34.698Z,6.72
2022-09-14T01:02:01.066Z,7.30
2022-09-14T01:04:26.824Z,6.05
2022-09-14T01:07:05.239Z,5.97
2022-09-14T01:09:54.039Z,7.18
2022-09-14T01:12:57.002Z,6.13
2022-09-14T01:15:48.097Z,8.30
2022-09-14T01:18:22.184Z,7.72
2022-09-14T01:20:57.622Z,8.32
2022-09-14T01:23:58.748Z,5.30
2022-09-14T01:26:57.922Z,6.13
2022-09-14T01:29:31.463Z,4.25
2022-09-14T01:32:17.423Z,4.78
2022-09-14T01:35:19.167Z,6.82
2022-09-14T01:37:51.137Z,6.60
2022-09-14T01:40:29.392Z,7.65
2022-09-14T01:43:15.513Z,4.78
2022-09-14T01:45:47.782Z,7.57
2022-09-14T01:48:19.095Z,7.65
2022-09-14T01:50:53.873Z,4.38
2022-09-14T01:53:33.975Z,6.30
2022-09-14T01:56:19.629Z,4.85
2022-09-14T01:59:13.958Z,7.85
2022-09-14T02:01:50.178Z,8.15
2022-09-14T02:04:25.521Z,7.53
2022-09-14T02:06:51.348Z,6.80
2022-09-14T02:09:22.053Z,4.82
2022-09-14T02:11:48.334Z,4.32
2022-09-14T02:14:14.200Z,4.38
2022-09-14T02:16:44.636Z,5.70
2022-09-14T02:19:10.481Z,6.93
2022-09-14T02:21:37.676Z,12.75
2022-09-14T02:24:03.856Z,10.45
2022-09-14T02:26:29.767Z,6.75
2022-09-14T02:28:56.611Z,4.47
2022-09-14T02:31:54.380Z,7.47
2022-09-14T02:34:41.746Z,7.07
2022-09-14T02:37:12.957Z,6.47
2022-09-14T02:39:57.531Z,6.15
2022-09-14T02:42:29.211Z,7.00
2022-09-14T02:45:37.809Z,5.60
2022-09-14T02:48:05.909Z,6.40
2022-09-14T02:50:53.859Z,6.47
2022-09-14T02:53:38.174Z,8.57
2022-09-14T02:56:07.842Z,7.28
2022-09-14T02:58:35.953Z,7.55
2022-09-14T03:01:03.639Z,9.23
2022-09-14T03:03:32.305Z,7.35
2022-09-14T03:06:01.245Z,8.85
2022-09-14T03:08:27.752Z,7.75
2022-09-14T03:10:54.234Z,8.18
2022-09-14T03:13:20.200Z,9.93
2022-09-14T03:15:46.211Z,6.22
2022-09-14T03:18:14.618Z,7.18
2022-09-14T03:20:41.003Z,7.53
2022-09-14T03:23:08.399Z,8.88
2022-09-14T03:25:39.151Z,8.35
2022-09-14T03:28:05.829Z,5.63
2022-09-14T03:30:32.435Z,8.93
2022-09-14T03:32:58.755Z,5.70
2022-09-14T03:35:25.178Z,6.18
2022-09-14T03:37:51.118Z,6.50
2022-09-14T03:40:21.595Z,8.57
2022-09-14T03:42:49.442Z,6.65
2022-09-14T03:45:16.639Z,5.57
2022-09-14T03:47:43.302Z,8.27
2022-09-14T03:50:11.014Z,4.75
2022-09-14T03:52:38.060Z,7.32
2022-09-14T03:55:05.676Z,8.15
2022-09-14T03:57:32.108Z,9.02
2022-09-14T03:59:58.329Z,7.00
2022-09-14T04:02:24.581Z,6.25
2022-09-14T04:04:50.444Z,6.00
2022-09-14T04:07:16.465Z,6.47
2022-09-14T04:09:44.272Z,9.18
2022-09-14T04:12:10.119Z,8.25
2022-09-14T04:14:36.163Z,6.43
2022-09-14T04:17:02.563Z,8.50
2022-09-14T04:19:28.320Z,7.45
2022-09-14T04:21:54.060Z,7.10
2022-09-14T04:24:20.133Z,9.43
2022-09-14T04:26:47.084Z,6.22
2022-09-14T04:29:13.689Z,9.02
2022-09-14T04:31:41.397Z,5.90
2022-09-14T04:34:07.283Z,9.90
2022-09-14T04:36:33.083Z,6.88
2022-09-14T04:39:00.893Z,6.93
2022-09-14T04:41:27.888Z,8.48
2022-09-14T04:43:55.442Z,7.28
2022-09-14T04:46:29.824Z,7.20
2022-09-14T04:48:55.694Z,6.72
2022-09-14T04:51:24.860Z,7.57
2022-09-14T04:53:53.228Z,6.65
2022-09-14T04:56:23.579Z,8.40
2022-09-14T04:58:52.349Z,7.93
2022-09-14T05:01:23.950Z,6.85
2022-09-14T05:03:50.940Z,7.25
2022-09-14T05:06:19.093Z,8.05
2022-09-14T05:08:46.290Z,8.23
2022-09-14T05:11:14.740Z,9.85
2022-09-14T05:13:42.084Z,8.73
2022-09-14T05:16:18.679Z,7.85
2022-09-14T05:18:45.247Z,8.70
2022-09-14T05:21:13.949Z,8.23
2022-09-14T05:23:39.851Z,8.35
2022-09-14T05:26:06.299Z,10.82
2022-09-14T05:28:33.333Z,9.40
2022-09-14T05:31:02.914Z,7.82
2022-09-14T05:33:28.783Z,7.22
2022-09-14T05:36:00.254Z,6.80
2022-09-14T05:38:28.529Z,7.68
2022-09-14T05:40:54.788Z,7.15
2022-09-14T05:43:21.911Z,12.02
2022-09-14T05:45:48.576Z,6.15
2022-09-14T05:48:14.647Z,7.50
2022-09-14T05:50:40.377Z,9.32
2022-09-14T05:53:06.168Z,9.40
2022-09-14T05:55:32.039Z,7.65
2022-09-14T05:57:57.809Z,7.03
2022-09-14T06:00:23.775Z,8.35
2022-09-14T06:02:51.599Z,7.00
2022-09-14T06:05:18.230Z,6.65
2022-09-14T06:07:44.745Z,6.47
2022-09-14T06:10:11.280Z,5.65
2022-09-14T06:12:37.421Z,6.10
2022-09-14T06:15:03.524Z,5.80
2022-09-14T06:17:30.476Z,5.82
2022-09-14T06:19:59.097Z,6.25
2022-09-14T06:22:26.829Z,5.60
2022-09-14T06:24:52.930Z,5.68
2022-09-14T06:27:19.081Z,7.25
2022-09-14T06:29:44.872Z,7.22
2022-09-14T06:32:10.652Z,6.90
2022-09-14T06:34:36.442Z,5.75
2022-09-14T06:37:02.234Z,5.63
2022-09-14T06:39:27.956Z,5.43
2022-09-14T06:41:53.913Z,5.28
2022-09-14T06:44:19.681Z,5.40
2022-09-14T06:46:47.674Z,4.85
2022-09-14T06:49:19.927Z,4.70
2022-09-14T06:51:48.801Z,4.78
2022-09-14T06:54:15.424Z,5.07
2022-09-14T06:56:42.581Z,6.40
2022-09-14T06:59:10.386Z,5.60
2022-09-14T07:01:36.702Z,6.55
2022-09-14T07:04:03.659Z,5.57
2022-09-14T07:06:32.875Z,5.28
2022-09-14T07:09:02.171Z,6.00
2022-09-14T07:11:28.761Z,5.70
2022-09-14T07:13:58.139Z,5.97
2022-09-14T07:16:28.197Z,5.65
2022-09-14T07:18:55.599Z,7.03
2022-09-14T07:21:22.526Z,5.28
2022-09-14T07:23:49.082Z,5.85
2022-09-14T07:26:21.299Z,6.45
2022-09-14T07:28:50.788Z,5.47
2022-09-14T07:31:23.953Z,5.45
2022-09-14T07:33:54.700Z,6.45
2022-09-14T07:36:21.654Z,6.00
2022-09-14T07:38:52.489Z,5.93
2022-09-14T07:41:24.135Z,6.00
2022-09-14T07:43:54.772Z,6.82
2022-09-14T07:46:21.031Z,7.05
2022-09-14T07:48:48.363Z,5.63
2022-09-14T07:51:14.697Z,5.32
2022-09-14T07:53:42.288Z,4.95
2022-09-14T07:56:10.110Z,6.32
2022-09-14T07:58:36.177Z,4.97
2022-09-14T08:01:05.209Z,5.00
2022-09-14T08:03:31.081Z,5.25
2022-09-14T08:06:01.261Z,4.07
2022-09-14T08:08:31.706Z,4.43
2022-09-14T08:11:28.351Z,4.40
2022-09-14T08:13:57.053Z,3.67
2022-09-14T08:16:24.235Z,5.40
2022-09-14T08:18:58.440Z,4.72
2022-09-14T08:21:25.593Z,4.03
2022-09-14T08:23:51.982Z,3.92
2022-09-14T08:26:23.070Z,4.03
2022-09-14T08:28:50.950Z,3.53
2022-09-14T08:31:20.210Z,3.63
2022-09-14T08:34:00.328Z,3.83
2022-09-14T08:36:31.953Z,3.38
2022-09-14T08:38:58.276Z,3.45
2022-09-14T08:41:29.313Z,3.90
2022-09-14T08:44:30.524Z,4.00
2022-09-14T08:47:06.327Z,5.15
2022-09-14T08:49:54.307Z,5.43
2022-09-14T08:52:35.301Z,3.92
2022-09-14T08:55:14.998Z,5.15
2022-09-14T08:57:50.958Z,4.18
2022-09-14T09:00:22.557Z,4.30
2022-09-14T09:03:03.487Z,4.90
2022-09-14T09:05:29.329Z,4.20
2022-09-14T09:08:19.690Z,4.43
2022-09-14T09:10:47.332Z,4.47
2022-09-14T09:13:19.828Z,4.45
2022-09-14T09:15:54.585Z,5.90
2022-09-14T09:18:35.297Z,4.47
2022-09-14T09:21:10.112Z,5.38
2022-09-14T09:23:36.497Z,5.75
2022-09-14T09:26:14.017Z,4.72
2022-09-14T09:28:49.164Z,4.63
2022-09-14T09:31:17.616Z,4.53
2022-09-14T09:33:49.008Z,4.35
2022-09-14T09:36:15.452Z,4.28
2022-09-14T09:38:41.750Z,5.60
2022-09-14T09:41:23.519Z,4.50
2022-09-14T09:44:02.516Z,5.53
2022-09-14T09:46:34.421Z,6.95
2022-09-14T09:49:15.228Z,4.07
2022-09-14T09:51:41.584Z,5.90
2022-09-14T09:54:29.260Z,7.22
2022-09-14T09:57:01.818Z,5.60
2022-09-14T09:59:41.548Z,5.85
2022-09-14T10:02:30.550Z,4.03
2022-09-14T10:05:03.935Z,3.47
2022-09-14T10:07:32.836Z,3.40
2022-09-14T10:10:01.532Z,2.85
2022-09-14T10:12:28.506Z,3.22
2022-09-14T10:15:28.132Z,2.78
2022-09-14T10:17:56.565Z,2.78
2022-09-14T10:20:24.775Z,2.63
2022-09-14T10:22:50.896Z,3.13
2022-09-14T10:25:17.177Z,2.30
2022-09-14T10:27:55.362Z,2.85
2022-09-14T10:30:47.180Z,1.83
2022-09-14T10:33:15.075Z,2.28
2022-09-14T10:35:55.944Z,2.60
2022-09-14T10:38:31.976Z,2.05
2022-09-14T10:41:26.409Z,3.00
2022-09-14T10:44:05.513Z,3.92
2022-09-14T10:46:47.839Z,3.55
2022-09-14T10:49:38.513Z,2.90
2022-09-14T10:52:13.328Z,2.47
2022-09-14T10:54:59.304Z,1.65
2022-09-14T10:57:37.532Z,1.52
2022-09-14T11:00:12.877Z,4.30
2022-09-14T11:05:26.398Z,1.50
2022-09-14T11:07:52.168Z,1.25
2022-09-14T11:10:57.121Z,2.78
2022-09-14T11:14:09.161Z,3.45
2022-09-14T11:16:46.974Z,2.05
2022-09-14T11:19:23.647Z,1.70
2022-09-14T11:22:03.522Z,2.50
2022-09-14T11:24:52.703Z,4.03
2022-09-14T11:27:38.954Z,4.00
2022-09-14T11:30:09.628Z,2.38
2022-09-14T11:32:50.200Z,2.35
2022-09-14T11:35:23.428Z,2.80
2022-09-14T11:38:12.076Z,2.85
2022-09-14T11:40:55.568Z,3.60
2022-09-14T11:43:28.976Z,2.75
2022-09-14T11:46:05.980Z,2.90
2022-09-14T11:48:54.243Z,2.53
2022-09-14T11:51:31.714Z,3.65
2022-09-14T11:53:57.704Z,2.13
2022-09-14T11:56:28.445Z,2.13
2022-09-14T11:58:57.347Z,2.13
2022-09-14T12:01:37.084Z,4.10
2022-09-14T12:04:13.945Z,2.67
2022-09-14T12:06:39.834Z,2.47
2022-09-14T12:09:20.741Z,2.55
2022-09-14T12:11:52.468Z,4.63
2022-09-14T12:14:26.613Z,2.25
2022-09-14T12:17:40.283Z,2.67
2022-09-14T12:20:43.330Z,1.90
2022-09-14T12:23:19.888Z,1.65
2022-09-14T12:26:06.064Z,1.80
2022-09-14T12:28:34.571Z,1.45
2022-09-14T12:31:01.908Z,2.55
2022-09-14T12:33:30.681Z,1.42
2022-09-14T12:36:11.176Z,1.27
2022-09-14T12:38:37.247Z,1.35
2022-09-14T12:41:45.990Z,1.27
2022-09-14T12:44:34.339Z,2.33
2022-09-14T12:47:24.834Z,1.35
2022-09-14T12:50:20.088Z,1.65
2022-09-14T12:52:51.845Z,1.50
2022-09-14T12:55:17.546Z,1.65
2022-09-14T12:57:51.829Z,2.92
2022-09-14T13:00:19.379Z,1.40
2022-09-14T13:03:29.541Z,1.42
2022-09-14T13:05:55.748Z,1.52
2022-09-14T13:08:23.920Z,1.10
2022-09-14T13:10:51.304Z,1.02
2022-09-14T13:13:21.435Z,1.45
2022-09-14T13:15:57.251Z,1.10
2022-09-14T13:18:23.020Z,1.40
2022-09-14T13:20:50.661Z,3.67
2022-09-14T13:23:20.636Z,3.10
2022-09-14T13:25:46.665Z,1.05
2022-09-14T13:28:15.795Z,3.03
2022-09-14T13:30:42.367Z,1.10
2022-09-14T13:33:17.893Z,0.90
2022-09-14T13:35:54.239Z,0.65
2022-09-14T13:38:19.945Z,1.95
2022-09-14T13:40:48.956Z,0.77
2022-09-14T13:43:19.316Z,0.80
2022-09-14T13:45:46.028Z,0.70
2022-09-14T13:48:14.426Z,1.55
2022-09-14T13:50:44.819Z,2.25
2022-09-14T13:53:58.502Z,0.90
2022-09-14T13:56:30.400Z,0.98
2022-09-14T13:59:09.760Z,0.70
2022-09-14T14:01:37.373Z,1.05
2022-09-14T14:04:03.798Z,1.25
2022-09-14T14:06:34.801Z,1.40
2022-09-14T14:09:09.762Z,1.17
2022-09-14T14:11:40.935Z,1.60
2022-09-14T14:14:15.566Z,1.80
2022-09-14T14:17:01.901Z,2.30
2022-09-14T14:19:30.296Z,2.10
2022-09-14T14:22:14.300Z,2.53
2022-09-14T14:25:11.680Z,3.00
2022-09-14T14:27:36.858Z,2.25
2022-09-14T14:30:21.171Z,2.40
2022-09-14T14:32:51.310Z,2.33
2022-09-14T14:35:21.555Z,2.28
2022-09-14T14:37:48.145Z,2.00
2022-09-14T14:40:15.274Z,2.10
2022-09-14T14:42:42.001Z,2.28
2022-09-14T14:45:20.634Z,1.90
2022-09-14T14:47:48.238Z,2.00
2022-09-14T14:50:22.766Z,2.40
2022-09-14T14:52:50.743Z,2.27
2022-09-14T14:55:17.336Z,2.22
2022-09-14T14:57:43.101Z,2.13
2022-09-14T15:00:18.402Z,1.92
2022-09-14T15:05:11.664Z,1.92
2022-09-14T15:07:38.139Z,2.55
2022-09-14T15:10:05.230Z,2.70
2022-09-14T15:12:31.717Z,3.13
2022-09-14T15:14:57.895Z,3.47
2022-09-14T15:17:24.493Z,2.97
2022-09-14T15:19:50.282Z,3.47
2022-09-14T15:22:16.098Z,4.35
2022-09-14T15:24:41.889Z,2.42
2022-09-14T15:27:07.718Z,3.03
2022-09-14T15:29:33.622Z,3.20
2022-09-14T15:31:59.573Z,3.65
2022-09-14T15:34:25.368Z,2.92
2022-09-14T15:36:52.965Z,3.40
2022-09-14T15:39:21.331Z,3.67
2022-09-14T15:41:47.192Z,4.03
2022-09-14T15:44:13.067Z,3.38
2022-09-14T15:46:39.694Z,3.92
2022-09-14T15:49:07.825Z,4.03
2022-09-14T15:51:33.881Z,3.55
2022-09-14T15:54:01.064Z,3.50
2022-09-14T15:56:27.234Z,3.25
2022-09-14T15:58:53.704Z,3.28
2022-09-14T16:01:19.898Z,3.00
2022-09-14T16:03:45.869Z,3.47
2022-09-14T16:06:13.034Z,3.80
2022-09-14T16:08:39.950Z,3.50
2022-09-14T16:11:07.242Z,3.78
2022-09-14T16:13:34.313Z,3.88
2022-09-14T16:16:12.106Z,4.03
2022-09-14T16:18:38.734Z,4.03
2022-09-14T16:21:06.428Z,6.40
2022-09-14T16:23:34.942Z,4.78
2022-09-14T16:26:14.778Z,4.40
2022-09-14T16:28:42.578Z,5.10
2022-09-14T16:31:20.122Z,4.80
2022-09-14T16:33:48.925Z,4.75
2022-09-14T16:36:17.871Z,4.07
2022-09-14T16:38:43.853Z,6.90
2022-09-14T16:41:11.050Z,5.88
2022-09-14T16:43:37.106Z,8.02
2022-09-14T16:46:08.374Z,5.38
2022-09-14T16:48:35.687Z,6.75
2022-09-14T16:51:02.560Z,5.95
2022-09-14T16:53:33.000Z,7.40
2022-09-14T16:56:04.449Z,8.10
2022-09-14T16:58:31.412Z,6.95
2022-09-14T17:01:06.125Z,7.03
2022-09-14T17:03:36.224Z,6.70
2022-09-14T17:06:07.843Z,8.55
2022-09-14T17:08:35.046Z,7.85
2022-09-14T17:11:03.473Z,8.00
2022-09-14T17:13:30.466Z,8.07
2022-09-14T17:16:01.322Z,8.13
2022-09-14T17:18:27.373Z,8.55
2022-09-14T17:21:02.506Z,8.90
2022-09-14T17:23:28.715Z,9.02
2022-09-14T17:25:55.483Z,9.10
2022-09-14T17:28:25.275Z,9.88
2022-09-14T17:30:52.382Z,8.73
2022-09-14T17:33:19.284Z,8.63
2022-09-14T17:35:47.446Z,8.85
2022-09-14T17:38:13.463Z,9.55
2022-09-14T17:40:39.270Z,10.50
2022-09-14T17:43:05.026Z,10.20
2022-09-14T17:45:30.888Z,11.27
2022-09-14T17:47:56.672Z,11.88
2022-09-14T17:50:22.859Z,13.75
2022-09-14T17:52:51.583Z,14.55
2022-09-14T17:55:17.845Z,13.25
2022-09-14T17:57:44.504Z,14.13
2022-09-14T18:00:11.116Z,14.05
2022-09-14T18:02:36.894Z,16.67
2022-09-14T18:05:03.166Z,18.02
2022-09-14T18:07:29.901Z,18.45
2022-09-14T18:09:56.541Z,16.25
2022-09-14T18:12:22.599Z,16.65
2022-09-14T18:14:48.919Z,15.35
2022-09-14T18:17:14.935Z,17.23
2022-09-14T18:19:41.287Z,18.38
2022-09-14T18:22:08.050Z,15.95
2022-09-14T18:24:34.513Z,14.60
2022-09-14T18:27:00.720Z,14.77
2022-09-14T18:29:29.044Z,13.90
2022-09-14T18:31:55.322Z,13.02
2022-09-14T18:34:21.953Z,11.60
2022-09-14T18:36:50.382Z,11.35
2022-09-14T18:39:16.244Z,11.35
2022-09-14T18:41:42.940Z,11.18
2022-09-14T18:44:08.911Z,13.38
2022-09-14T18:46:35.922Z,14.65
2022-09-14T18:49:02.493Z,12.70
2022-09-14T18:51:30.310Z,14.23
2022-09-14T18:53:58.147Z,14.15
2022-09-14T18:56:24.254Z,14.73
2022-09-14T18:58:50.098Z,15.45
2022-09-14T19:01:16.120Z,17.55
2022-09-14T19:03:42.938Z,16.27
2022-09-14T19:06:14.521Z,16.48
2022-09-14T19:08:41.475Z,23.30
2022-09-14T19:11:22.769Z,20.38
2022-09-14T19:13:53.838Z,19.40
2022-09-14T19:16:19.937Z,20.05
2022-09-14T19:18:47.707Z,18.63
2022-09-14T19:21:23.367Z,20.13
2022-09-14T19:23:55.752Z,22.33
2022-09-14T19:26:21.549Z,20.52
2022-09-14T19:28:47.590Z,26.10
2022-09-14T19:31:19.413Z,19.80
2022-09-14T19:33:45.799Z,19.77
2022-09-14T19:36:14.974Z,20.85
2022-09-14T19:38:43.037Z,24.33
2022-09-14T19:41:09.173Z,20.25
2022-09-14T19:43:35.309Z,21.27
2022-09-14T19:46:05.755Z,22.42
2022-09-14T19:48:32.690Z,21.42
2022-09-14T19:50:59.889Z,19.83
2022-09-14T19:53:26.693Z,21.15
2022-09-14T19:55:52.509Z,22.77
2022-09-14T19:58:18.264Z,23.35
2022-09-14T20:00:44.103Z,31.60
2022-09-14T20:03:09.972Z,20.45
2022-09-14T20:05:36.250Z,23.60
2022-09-14T20:08:02.156Z,19.92
2022-09-14T20:10:28.148Z,21.35
2022-09-14T20:12:54.038Z,24.45
2022-09-14T20:15:19.832Z,20.55
2022-09-14T20:17:45.671Z,23.80
2022-09-14T20:20:11.732Z,22.00
2022-09-14T20:22:37.537Z,27.33
2022-09-14T20:25:04.524Z,21.60
2022-09-14T20:27:30.282Z,20.15
2022-09-14T20:29:56.045Z,23.90
2022-09-14T20:32:21.818Z,21.55
2022-09-14T20:34:47.568Z,23.67
2022-09-14T20:37:13.346Z,30.50
2022-09-14T20:39:39.119Z,35.97
2022-09-14T20:42:05.182Z,27.75
2022-09-14T20:44:31.030Z,95.50
2022-09-14T20:46:56.893Z,22.90
2022-09-14T20:49:23.169Z,25.27
2022-09-14T20:51:51.745Z,21.83
2022-09-14T20:54:17.830Z,36.17
2022-09-14T20:56:45.500Z,22.70
2022-09-14T20:59:14.017Z,23.83
2022-09-14T21:01:42.705Z,26.17
2022-09-14T21:04:14.847Z,22.48
2022-09-14T21:06:43.421Z,27.55
2022-09-14T21:09:10.504Z,22.45
2022-09-14T21:11:37.170Z,22.02
2022-09-14T21:14:03.272Z,25.10
2022-09-14T21:16:41.867Z,22.20
2022-09-14T21:19:16.298Z,20.10
2022-09-14T21:21:42.983Z,49.58
2022-09-14T21:24:12.484Z,20.13
2022-09-14T21:26:42.485Z,22.50
2022-09-14T21:29:17.515Z,19.42
2022-09-14T21:31:44.019Z,19.73
2022-09-14T21:34:11.098Z,18.92
2022-09-14T21:36:48.295Z,18.65
2022-09-14T21:39:22.621Z,18.17
2022-09-14T21:41:52.333Z,17.25
2022-09-14T21:44:20.515Z,16.67
2022-09-14T21:46:46.332Z,17.25
2022-09-14T21:49:14.528Z,17.48
2022-09-14T21:51:41.049Z,16.77
2022-09-14T21:54:08.854Z,16.67
2022-09-14T21:56:37.127Z,17.67
2022-09-14T21:59:06.146Z,17.23
2022-09-14T22:01:32.087Z,17.92
2022-09-14T22:03:58.104Z,16.30
2022-09-14T22:06:26.636Z,18.20
2022-09-14T22:08:53.168Z,15.50
2022-09-14T22:11:23.249Z,17.58
2022-09-14T22:13:54.089Z,16.40
2022-09-14T22:16:20.748Z,14.77
2022-09-14T22:18:53.314Z,15.50
2022-09-14T22:21:20.799Z,15.65
2022-09-14T22:23:51.554Z,16.00
2022-09-14T22:26:19.353Z,15.38
2022-09-14T22:28:46.856Z,17.55
2022-09-14T22:31:13.159Z,15.88
2022-09-14T22:33:39.030Z,15.35
2022-09-14T22:36:05.483Z,16.75
2022-09-14T22:38:33.673Z,14.80
2022-09-14T22:41:02.419Z,17.02
2022-09-14T22:43:28.787Z,16.52
2022-09-14T22:45:54.953Z,18.98
2022-09-14T22:48:21.913Z,19.50
2022-09-14T22:50:51.093Z,18.83
2022-09-14T22:53:17.643Z,17.38
2022-09-14T22:55:44.458Z,19.63
2022-09-14T22:58:11.676Z,17.23
2022-09-14T23:00:38.964Z,17.90
2022-09-14T23:03:06.234Z,17.15
2022-09-14T23:05:32.804Z,17.92
2022-09-14T23:07:58.619Z,21.30
2022-09-14T23:10:24.564Z,19.17
2022-09-14T23:12:50.318Z,19.23
2022-09-14T23:15:16.447Z,18.20
2022-09-14T23:17:42.418Z,19.65
2022-09-14T23:20:09.128Z,20.80
2022-09-14T23:22:35.588Z,20.48
2022-09-14T23:25:01.882Z,22.98
2022-09-14T23:27:27.669Z,17.63
2022-09-14T23:29:53.784Z,16.63
2022-09-14T23:32:19.977Z,20.20
2022-09-14T23:34:47.314Z,16.77
2022-09-14T23:37:13.433Z,17.00
2022-09-14T23:39:40.231Z,16.00
2022-09-14T23:42:07.267Z,16.33
2022-09-14T23:44:33.432Z,14.50
2022-09-14T23:46:59.385Z,13.32
2022-09-14T23:49:25.450Z,14.15
2022-09-14T23:51:51.177Z,12.50
2022-09-14T23:54:17.154Z,17.52
2022-09-14T23:56:43.147Z,14.48
2022-09-14T23:59:13.609Z,15.05
